Latest Coastal Weather Observations for Dum In Mirrie

IDD60701

Issued at 6:51 pm CST Saturday 23 July 2016 (issued every 10 minutes, with the page automatically refreshed every 10 minutes)

About coastal observations | Map of coastal stations | Coastal observations for NT | Marine services | Other Formats
Station Details ID: 014277 Name: DUM IN MIRRIE AIRSTRIP Lat: -12.63 Lon: 130.37 Height: 3.5 m
Data from the previous 72 hours. | See also: Recent months at Dum In Mirrie
Date/Time
CST
Temp
°C
Wind Pressure Rain since
9am
mm
Weather Cloud Vis
km
Sea
Height
m
Swell
Dir  Spd
kts
Gust
kts
hPa Trend Height
m
Period
s
Dir
23/06:30pm - W 2 3 1009.3 - 0.0 - - - - - - -
23/06:00pm - W 3 6 1009.1 - 0.0 - - - - - - -
23/05:30pm - W 4 7 1009.1 - 0.0 - - - - - - -
23/05:00pm - W 6 9 1009.1 - 0.0 - - - - - - -
23/04:30pm - W 5 8 1009.2 - 0.0 - - - - - - -
23/04:00pm - W 5 9 1009.3 - 0.0 - - - - - - -
23/03:30pm - W 6 10 1009.4 - 0.0 - - - - - - -
23/03:00pm - WNW 5 9 1009.6 - 0.0 - - - - - - -
23/02:30pm - WNW 5 9 1010.0 - 0.0 - - - - - - -
23/02:00pm 29.4 W 5 8 1010.6 - 0.0 - - - - - - -
23/01:30pm 29.5 WNW 5 7 1011.1 - 0.0 - - - - - - -
23/01:00pm 29.1 W 5 8 1011.5 - 0.0 - - - - - - -
23/12:30pm 29.2 W 6 9 1011.9 - 0.0 - - - - - - -
23/12:00pm 28.0 W 3 5 1012.5 - 0.0 - - - - - - -
23/11:30am 27.8 WSW 2 3 1013.0 - 0.0 - - - - - - -
23/11:00am 28.1 SW 3 5 1013.2 - 0.0 - - - - - - -
23/10:30am 28.0 WSW 2 3 1013.3 - 0.0 - - - - - - -
23/10:00am 27.9 WSW 1 3 1013.5 - 0.0 - - - - - - -
23/09:30am 27.6 ENE 2 3 1013.4 - 0.0 - - - - - - -
23/09:00am 26.1 E 2 3 1013.1 - 0.0 - - - - - - -
23/08:30am 24.6 E 2 3 1012.9 - 0.0 - - - - - - -
23/08:00am 22.9 E 2 3 1012.4 - 0.0 - - - - - - -
23/07:30am 21.8 E 2 3 1012.2 - 0.0 - - - - - - -
23/07:00am 20.5 ENE 2 3 1011.9 - 0.0 - - - - - - -
23/06:30am 20.5 CALM 0 0 1011.6 - 0.0 - - - - - - -
23/06:00am 21.1 CALM 0 0 1011.2 - 0.0 - - - - - - -
23/05:30am 21.7 CALM 0 0 1010.9 - 0.0 - - - - - - -
23/05:00am 21.6 CALM 0 0 1011.0 - 0.0 - - - - - - -
23/04:30am 21.7 CALM 0 0 1010.8 - 0.0 - - - - - - -
23/04:00am 21.5 S 1 1 1010.6 - 0.0 - - - - - - -
23/03:30am 21.8 CALM 0 0 1010.8 - 0.0 - - - - - - -
23/03:00am 21.9 CALM 0 0 1011.1 - 0.0 - - - - - - -
23/02:30am 21.9 SSE 1 2 1011.4 - 0.0 - - - - - - -
23/02:00am 22.0 CALM 0 2 1011.3 - 0.0 - - - - - - -
23/01:30am 22.4 CALM 0 0 1011.5 - 0.0 - - - - - - -
23/01:00am - CALM 0 0 1011.6 - 0.0 - - - - - - -
23/12:30am 22.3 CALM 0 0 1011.6 - 0.0 - - - - - - -
23/12:00am - CALM 0 0 1011.5 - 0.0 - - - - - - -
 
Date/Time
CST
Temp
°C
Wind Pressure Rain since
9am
mm
Weather Cloud Vis
km
Sea
Height
m
Swell
Dir  Spd
kts
Gust
kts
hPa Trend Height
m
Period
s
Dir
22/11:30pm 22.1 CALM 0 0 1011.6 - 0.0 - - - - - - -
22/11:00pm - CALM 0 0 1011.5 - 0.0 - - - - - - -
22/10:30pm 23.3 SSE 1 2 1011.2 - 0.0 - - - - - - -
22/10:00pm 22.9 S 1 3 1011.1 - 0.0 - - - - - - -
22/09:30pm 22.0 CALM 0 0 1011.0 - 0.0 - - - - - - -
22/09:00pm - CALM 0 0 1010.6 - 0.0 - - - - - - -
22/08:30pm 22.4 CALM 0 0 1010.4 - 0.0 - - - - - - -
22/08:00pm 22.5 NW 2 2 1010.1 - 0.0 - - - - - - -
22/07:30pm 23.2 NNW 2 3 1009.9 - 0.0 - - - - - - -
22/07:00pm 24.3 CALM 0 0 1009.7 - 0.0 - - - - - - -
22/06:30pm 26.4 CALM 0 2 1009.6 - 0.0 - - - - - - -
22/06:00pm 27.8 N 3 6 1009.3 - 0.0 - - - - - - -
22/05:30pm 28.3 NNW 3 6 1009.1 - 0.0 - - - - - - -
22/05:00pm 28.7 NNW 4 8 1009.0 - 0.0 - - - - - - -
22/04:30pm 28.7 NNW 5 9 1009.1 - 0.0 - - - - - - -
22/04:00pm 29.5 NNW 5 8 1009.2 - 0.0 - - - - - - -
22/03:30pm 29.9 N 6 9 1009.4 - 0.0 - - - - - - -
22/03:00pm 29.6 NNW 6 10 1009.7 - 0.0 - - - - - - -
22/02:30pm - NNW 7 11 1010.1 - 0.0 - - - - - - -
22/02:00pm 31.0 NNE 5 8 1010.4 - 0.0 - - - - - - -
22/01:30pm - ESE 5 8 1010.9 - 0.0 - - - - - - -
22/01:00pm 31.2 E 4 7 1011.4 - 0.0 - - - - - - -
22/12:30pm - E 4 7 1011.9 - 0.0 - - - - - - -
22/12:00pm - SW 3 5 1012.4 - 0.0 - - - - - - -
22/11:30am - ESE 2 5 1012.7 - 0.0 - - - - - - -
22/11:00am - S 2 4 1013.2 - 0.0 - - - - - - -
22/10:30am - SSE 3 5 1013.4 - 0.0 - - - - - - -
22/10:00am - SSE 3 5 1013.6 - 0.0 - - - - - - -
22/09:30am - S 3 6 1013.6 - 0.0 - - - - - - -
22/09:00am - SSE 2 5 1013.6 - 0.0 - - - - - - -
22/08:30am - SSE 2 3 1013.4 - 0.0 - - - - - - -
22/08:00am - SE 2 4 1013.1 - 0.0 - - - - - - -
22/07:30am - ESE 2 3 1012.8 - 0.0 - - - - - - -
22/07:00am - SE 2 3 1012.5 - 0.0 - - - - - - -
22/06:30am - SE 3 8 1012.6 - 0.0 - - - - - - -
22/06:00am - S 2 4 1011.9 - 0.0 - - - - - - -
22/05:30am 19.2 S 1 3 1011.6 - 0.0 - - - - - - -
22/05:00am 18.8 S 1 2 1011.4 - 0.0 - - - - - - -
22/04:30am - S 1 2 1011.5 - 0.0 - - - - - - -
22/04:00am 18.7 S 1 2 1011.7 - 0.0 - - - - - - -
22/03:30am 18.9 CALM 0 0 1011.8 - 0.0 - - - - - - -
22/03:00am - S 2 3 1012.0 - 0.0 - - - - - - -
22/02:30am 19.2 SSE 1 2 1012.1 - 0.0 - - - - - - -
22/02:00am 19.5 SSE 1 2 1012.4 - 0.0 - - - - - - -
22/01:30am 20.2 S 1 2 1012.5 - 0.0 - - - - - - -
22/01:00am 20.9 SSE 2 3 1012.6 - 0.0 - - - - - - -
22/12:30am 20.9 SSE 1 2 1012.5 - 0.0 - - - - - - -
22/12:00am 20.8 S 1 2 1012.2 - 0.0 - - - - - - -
 
Date/Time
CST
Temp
°C
Wind Pressure Rain since
9am
mm
Weather Cloud Vis
km
Sea
Height
m
Swell
Dir  Spd
kts
Gust
kts
hPa Trend Height
m
Period
s
Dir
21/11:30pm 21.2 SSE 2 3 1012.5 - 0.0 - - - - - - -
21/11:00pm 20.3 CALM 0 0 1012.4 - 0.0 - - - - - - -
21/10:30pm 20.3 S 1 2 1012.3 - 0.0 - - - - - - -
21/10:00pm 20.3 CALM 0 0 1012.4 - 0.0 - - - - - - -
21/09:30pm 20.1 CALM 0 0 1012.3 - 0.0 - - - - - - -
21/09:00pm 20.6 CALM 0 0 1012.1 - 0.0 - - - - - - -
21/08:30pm 20.9 CALM 0 0 1011.8 - 0.0 - - - - - - -
21/08:00pm 21.2 CALM 0 0 1011.6 - 0.0 - - - - - - -
21/07:30pm 21.7 CALM 0 0 1011.4 - 0.0 - - - - - - -
21/07:00pm 23.0 CALM 0 0 1011.1 - 0.0 - - - - - - -
21/06:30pm 25.4 WNW 1 3 1010.8 - 0.0 - - - - - - -
21/06:00pm 26.9 NNW 2 4 1010.5 - 0.0 - - - - - - -
21/05:30pm 27.3 NNW 4 6 1010.3 - 0.0 - - - - - - -
21/05:00pm 27.8 NW 4 6 1010.2 - 0.0 - - - - - - -
21/04:30pm 28.0 NW 4 7 1010.3 - 0.0 - - - - - - -
21/04:00pm 28.2 NW 5 7 1010.5 - 0.0 - - - - - - -
21/03:30pm 28.0 NW 6 10 1010.5 - 0.0 - - - - - - -
21/03:00pm 28.3 NNW 6 11 1010.7 - 0.0 - - - - - - -
21/02:30pm - NNW 6 10 1011.4 - 0.0 - - - - - - -
21/02:00pm - N 6 9 1012.0 - 0.0 - - - - - - -
21/01:30pm 29.0 NNW 5 8 1012.6 - 0.0 - - - - - - -
21/01:00pm 27.4 WSW 5 6 1012.8 - 0.0 - - - - - - -
21/12:30pm - WSW 4 5 1013.2 - 0.0 - - - - - - -
21/12:00pm - WNW 3 5 1013.7 - 0.0 - - - - - - -
21/11:30am - ENE 2 5 1014.0 - 0.0 - - - - - - -
21/11:00am - SE 2 4 1014.0 - 0.0 - - - - - - -
21/10:30am - SSE 3 5 1014.2 - 0.0 - - - - - - -
21/10:00am 25.7 SSE 2 5 1014.3 - 0.0 - - - - - - -
21/09:30am 24.6 S 2 4 1014.3 - 0.0 - - - - - - -
21/09:00am 23.0 SSE 2 4 1014.0 - 0.0 - - - - - - -
21/08:30am 21.3 SE 2 3 1013.9 - 0.0 - - - - - - -
21/08:00am 20.2 SE 1 2 1013.6 - 0.0 - - - - - - -
21/07:30am 18.0 SE 1 2 1013.3 - 0.0 - - - - - - -
21/07:00am - ESE 1 2 1013.1 - 0.0 - - - - - - -
21/06:30am - CALM 0 0 1012.7 - 0.0 - - - - - - -
21/06:00am - CALM 0 0 1012.4 - 0.0 - - - - - - -
21/05:30am - CALM 0 0 1012.2 - 0.0 - - - - - - -
21/05:00am - CALM 0 2 1012.2 - 0.0 - - - - - - -
21/04:30am - SSE 1 2 1012.2 - 0.0 - - - - - - -
21/04:00am - SSE 2 2 1012.2 - 0.0 - - - - - - -
21/03:30am - SSE 1 2 1012.3 - 0.0 - - - - - - -
21/03:00am - SSE 1 2 1012.5 - 0.0 - - - - - - -
21/02:30am - SSE 2 3 1012.9 - 0.0 - - - - - - -
21/02:00am - SSE 2 4 1012.9 - 0.0 - - - - - - -
21/01:30am - SSE 2 3 1013.1 - 0.0 - - - - - - -
21/01:00am - SSE 2 3 1013.3 - 0.0 - - - - - - -
21/12:30am - SSE 2 2 1013.4 - 0.0 - - - - - - -
21/12:00am 21.3 SSE 2 3 1013.6 - 0.0 - - - - - - -
 
Date/Time
CST
Temp
°C
Wind Pressure Rain since
9am
mm
Weather Cloud Vis
km
Sea
Height
m
Swell
Dir  Spd
kts
Gust
kts
hPa Trend Height
m
Period
s
Dir
20/11:30pm 19.9 CALM 0 0 1013.6 - 0.0 - - - - - - -
20/11:00pm 20.8 CALM 0 1 1013.3 - 0.0 - - - - - - -
20/10:30pm 20.3 SSE 1 2 1013.5 - 0.0 - - - - - - -
20/10:00pm 20.5 CALM 0 0 1013.2 - 0.0 - - - - - - -
20/09:30pm 20.3 CALM 0 0 1012.8 - 0.0 - - - - - - -
20/09:00pm 20.6 CALM 0 0 1012.5 - 0.0 - - - - - - -
20/08:30pm 21.3 CALM 0 0 1012.2 - 0.0 - - - - - - -
20/08:00pm 21.7 CALM 0 0 1011.8 - 0.0 - - - - - - -
20/07:30pm 22.2 NW 1 2 1011.4 - 0.0 - - - - - - -
20/07:00pm 23.8 NNW 1 2 1011.0 - 0.0 - - - - - - -

Other Formats:

Comma delimited format used in spreadsheet applications
http://www.bom.gov.au/fwo/IDD60701/IDD60701.94116.axf

JavaScript Object Notation format (JSON) in row-major order
http://www.bom.gov.au/fwo/IDD60701/IDD60701.94116.json